Boothbay, ME

8:09 PM EDT on May 27, 2015 (GMT -0400)
Boothbay Region Water District | | Change Station
CLOSE
Current Station
Personal Weather Station
Location: Boothbay, ME
Elevation: 62 ft
Nearby Weather Stations

Elev 62 ft 43.89 °N, 69.63 °W | Updated 4 minutes ago

Clear
Clear
62.3 °F
Feels Like 62.3 °F
N
13.0
Wind Variable Wind from West
Gusts 13.0 mph

Today
High -- | Low -- °F
--% Chance of Precip.
Yesterday
High -- | Low -- °F
Precip. -- in
5:02 AM 8:09 PM
Waxing Gibbous, 71% visible
Pressure 30.04 in
Visibility 10.0 miles
Clouds Clear
Dew Point 59 °F
Humidity 90%
Rainfall 0.00 in
Snow Depth Not available.
UV 0 out of 12
Pollen 8.70 out of 12
Air Quality Not available.
Flu Activity Local Activity
METAR KIWI 272353Z AUTO 22008G19KT 10SM CLR 19/16 A3003 RMK AO2 SLP170 T01940161 10244 20194 53002

More Conditions Fewer Conditions

Pressure 30.04 in
Visibility 10.0 miles
Clouds Clear
Dew Point 59 °F
Humidity 90%
Rainfall 0.00 in
Snow Depth Not available.
UV 0 out of 12
Pollen 8.70 out of 12
Air Quality Not available.
Flu Activity Local Activity
METAR KIWI 272353Z AUTO 22008G19KT 10SM CLR 19/16 A3003 RMK AO2 SLP170 T01940161 10244 20194 53002

More Conditions Fewer Conditions

10-Day Weather Forecast

Almanac

Astronomy

May. 27, 2015 Rise Set
Actual Time
Civil Twilight
Nautical Twilight
Astronomical Twilight
Moon
Length of Visible Light
Length of Day
Tomorrow will be .
, % of the Moon is Illuminated

Today's Extremes

State Highs State Lows

Community

WunderPhotos

Upload Photos

1,824,825 photos uploaded!

WunderBlogs® & News

Nearby

Air Quality

  Air Quality AQ Index Pollutant
Not available.

Snow Depth

Station Depth Elevation

Earthquake Activity

City Distance Mag. Time & Date
Minimum magnitude displayed is 2.5.

Coastal Water Temperatures

Place Temperature

Stations

Nearby Weather Stations

Station Location Temp. Windchill Dew Point Humidity Wind Precip. Elev Updated Type